sensor_id;sensor_type;location;lat;lon;timestamp;P1;durP1;ratioP1;P2;durP2;ratioP2
58808;SDS011;44579;51.672;7.834;2022-08-25T00:01:43;3.50;;;2.20;;
58808;SDS011;44579;51.672;7.834;2022-08-25T00:04:14;3.08;;;2.05;;
58808;SDS011;44579;51.672;7.834;2022-08-25T00:06:43;4.53;;;2.30;;
58808;SDS011;44579;51.672;7.834;2022-08-25T00:09:13;4.40;;;2.25;;
58808;SDS011;44579;51.672;7.834;2022-08-25T00:11:41;3.97;;;2.20;;
58808;SDS011;44579;51.672;7.834;2022-08-25T00:14:10;5.60;;;2.17;;
58808;SDS011;44579;51.672;7.834;2022-08-25T00:16:41;3.08;;;1.90;;
58808;SDS011;44579;51.672;7.834;2022-08-25T00:19:10;4.82;;;2.03;;
58808;SDS011;44579;51.672;7.834;2022-08-25T00:21:44;10.00;;;2.40;;
58808;SDS011;44579;51.672;7.834;2022-08-25T00:24:13;7.35;;;2.17;;
58808;SDS011;44579;51.672;7.834;2022-08-25T00:26:45;5.95;;;2.38;;
58808;SDS011;44579;51.672;7.834;2022-08-25T00:29:14;8.05;;;2.40;;
58808;SDS011;44579;51.672;7.834;2022-08-25T00:31:41;9.43;;;2.40;;
58808;SDS011;44579;51.672;7.834;2022-08-25T00:34:12;8.15;;;2.50;;
58808;SDS011;44579;51.672;7.834;2022-08-25T00:36:42;9.73;;;2.33;;
58808;SDS011;44579;51.672;7.834;2022-08-25T00:39:09;5.50;;;2.40;;
58808;SDS011;44579;51.672;7.834;2022-08-25T00:41:37;9.23;;;2.58;;
58808;SDS011;44579;51.672;7.834;2022-08-25T00:44:07;6.63;;;2.22;;
58808;SDS011;44579;51.672;7.834;2022-08-25T00:46:39;11.57;;;2.47;;
58808;SDS011;44579;51.672;7.834;2022-08-25T00:49:10;3.78;;;2.15;;
58808;SDS011;44579;51.672;7.834;2022-08-25T00:51:53;6.82;;;2.60;;
58808;SDS011;44579;51.672;7.834;2022-08-25T00:54:48;7.85;;;4.15;;
58808;SDS011;44579;51.672;7.834;2022-08-25T00:57:22;8.27;;;2.55;;
58808;SDS011;44579;51.672;7.834;2022-08-25T01:00:00;10.55;;;2.22;;
58808;SDS011;44579;51.672;7.834;2022-08-25T01:02:36;3.70;;;2.40;;
58808;SDS011;44579;51.672;7.834;2022-08-25T01:07:31;11.38;;;2.60;;
58808;SDS011;44579;51.672;7.834;2022-08-25T01:09:59;4.22;;;2.92;;
58808;SDS011;44579;51.672;7.834;2022-08-25T01:12:26;9.45;;;2.60;;
58808;SDS011;44579;51.672;7.834;2022-08-25T01:14:53;4.75;;;2.55;;
58808;SDS011;44579;51.672;7.834;2022-08-25T01:17:21;8.38;;;2.60;;
58808;SDS011;44579;51.672;7.834;2022-08-25T01:19:53;8.57;;;2.50;;
58808;SDS011;44579;51.672;7.834;2022-08-25T01:22:21;4.07;;;2.30;;
58808;SDS011;44579;51.672;7.834;2022-08-25T01:25:02;3.42;;;2.25;;
58808;SDS011;44579;51.672;7.834;2022-08-25T01:27:39;10.52;;;2.70;;
58808;SDS011;44579;51.672;7.834;2022-08-25T01:30:06;5.25;;;2.47;;
58808;SDS011;44579;51.672;7.834;2022-08-25T01:32:34;7.07;;;3.03;;
58808;SDS011;44579;51.672;7.834;2022-08-25T01:35:00;4.07;;;2.40;;
58808;SDS011;44579;51.672;7.834;2022-08-25T01:37:27;12.50;;;2.80;;
58808;SDS011;44579;51.672;7.834;2022-08-25T01:39:54;9.63;;;3.30;;
58808;SDS011;44579;51.672;7.834;2022-08-25T01:45:25;6.25;;;2.83;;
58808;SDS011;44579;51.672;7.834;2022-08-25T01:47:54;6.70;;;2.90;;
58808;SDS011;44579;51.672;7.834;2022-08-25T01:50:21;5.95;;;2.40;;
58808;SDS011;44579;51.672;7.834;2022-08-25T01:52:59;5.20;;;2.75;;
58808;SDS011;44579;51.672;7.834;2022-08-25T01:55:32;5.03;;;2.38;;
58808;SDS011;44579;51.672;7.834;2022-08-25T01:58:25;8.52;;;2.55;;
58808;SDS011;44579;51.672;7.834;2022-08-25T02:03:23;7.22;;;2.65;;
58808;SDS011;44579;51.672;7.834;2022-08-25T02:05:51;5.63;;;2.50;;
58808;SDS011;44579;51.672;7.834;2022-08-25T02:08:18;3.85;;;2.40;;
58808;SDS011;44579;51.672;7.834;2022-08-25T02:10:48;5.13;;;2.50;;
58808;SDS011;44579;51.672;7.834;2022-08-25T02:13:18;5.32;;;2.15;;
58808;SDS011;44579;51.672;7.834;2022-08-25T02:15:53;4.97;;;2.67;;
58808;SDS011;44579;51.672;7.834;2022-08-25T02:18:21;5.75;;;2.50;;
58808;SDS011;44579;51.672;7.834;2022-08-25T02:20:51;4.93;;;2.88;;
58808;SDS011;44579;51.672;7.834;2022-08-25T02:23:18;6.07;;;2.65;;
58808;SDS011;44579;51.672;7.834;2022-08-25T02:25:45;7.50;;;2.90;;
58808;SDS011;44579;51.672;7.834;2022-08-25T02:33:07;3.55;;;2.53;;
58808;SDS011;44579;51.672;7.834;2022-08-25T02:38:02;4.72;;;2.58;;
58808;SDS011;44579;51.672;7.834;2022-08-25T02:40:29;9.68;;;3.10;;
58808;SDS011;44579;51.672;7.834;2022-08-25T02:42:56;6.57;;;2.72;;
58808;SDS011;44579;51.672;7.834;2022-08-25T02:45:23;4.32;;;2.90;;
58808;SDS011;44579;51.672;7.834;2022-08-25T02:47:50;8.23;;;3.40;;
58808;SDS011;44579;51.672;7.834;2022-08-25T02:50:17;3.47;;;2.55;;
58808;SDS011;44579;51.672;7.834;2022-08-25T02:52:45;4.70;;;2.78;;
58808;SDS011;44579;51.672;7.834;2022-08-25T02:55:12;5.78;;;2.83;;
58808;SDS011;44579;51.672;7.834;2022-08-25T02:57:40;10.55;;;2.83;;
58808;SDS011;44579;51.672;7.834;2022-08-25T03:00:08;6.70;;;2.50;;
58808;SDS011;44579;51.672;7.834;2022-08-25T03:02:38;6.22;;;2.70;;
58808;SDS011;44579;51.672;7.834;2022-08-25T03:05:07;5.13;;;2.38;;
58808;SDS011;44579;51.672;7.834;2022-08-25T03:07:35;4.68;;;2.78;;
58808;SDS011;44579;51.672;7.834;2022-08-25T03:10:04;9.32;;;2.72;;
58808;SDS011;44579;51.672;7.834;2022-08-25T03:12:37;4.63;;;2.78;;
58808;SDS011;44579;51.672;7.834;2022-08-25T03:15:10;7.03;;;2.90;;
58808;SDS011;44579;51.672;7.834;2022-08-25T03:17:38;7.13;;;2.92;;
58808;SDS011;44579;51.672;7.834;2022-08-25T03:20:09;8.20;;;2.83;;
58808;SDS011;44579;51.672;7.834;2022-08-25T03:22:36;4.68;;;2.28;;
58808;SDS011;44579;51.672;7.834;2022-08-25T03:25:04;7.15;;;2.67;;
58808;SDS011;44579;51.672;7.834;2022-08-25T03:27:50;9.63;;;2.72;;
58808;SDS011;44579;51.672;7.834;2022-08-25T03:30:20;4.68;;;2.67;;
58808;SDS011;44579;51.672;7.834;2022-08-25T03:32:47;10.10;;;3.03;;
58808;SDS011;44579;51.672;7.834;2022-08-25T03:35:14;7.38;;;2.67;;
58808;SDS011;44579;51.672;7.834;2022-08-25T03:37:41;4.65;;;2.83;;
58808;SDS011;44579;51.672;7.834;2022-08-25T03:40:09;5.20;;;2.72;;
58808;SDS011;44579;51.672;7.834;2022-08-25T03:42:42;7.18;;;2.90;;
58808;SDS011;44579;51.672;7.834;2022-08-25T03:45:12;9.05;;;2.53;;
58808;SDS011;44579;51.672;7.834;2022-08-25T03:47:41;3.85;;;2.63;;
58808;SDS011;44579;51.672;7.834;2022-08-25T03:50:12;4.90;;;3.05;;
58808;SDS011;44579;51.672;7.834;2022-08-25T03:52:42;3.85;;;3.08;;
58808;SDS011;44579;51.672;7.834;2022-08-25T03:55:09;8.90;;;3.28;;
58808;SDS011;44579;51.672;7.834;2022-08-25T03:57:37;8.50;;;2.72;;
58808;SDS011;44579;51.672;7.834;2022-08-25T04:00:05;8.55;;;2.83;;
58808;SDS011;44579;51.672;7.834;2022-08-25T04:02:37;13.63;;;2.92;;
58808;SDS011;44579;51.672;7.834;2022-08-25T04:05:08;5.75;;;3.08;;
58808;SDS011;44579;51.672;7.834;2022-08-25T04:07:35;7.57;;;3.20;;
58808;SDS011;44579;51.672;7.834;2022-08-25T04:10:05;5.15;;;3.20;;
58808;SDS011;44579;51.672;7.834;2022-08-25T04:12:35;4.35;;;3.13;;
58808;SDS011;44579;51.672;7.834;2022-08-25T04:15:03;7.50;;;2.80;;
58808;SDS011;44579;51.672;7.834;2022-08-25T04:17:31;4.53;;;3.00;;
58808;SDS011;44579;51.672;7.834;2022-08-25T04:20:00;7.13;;;3.05;;
58808;SDS011;44579;51.672;7.834;2022-08-25T04:22:27;6.32;;;3.20;;
58808;SDS011;44579;51.672;7.834;2022-08-25T04:24:55;5.72;;;3.28;;
58808;SDS011;44579;51.672;7.834;2022-08-25T04:27:23;5.20;;;3.00;;
58808;SDS011;44579;51.672;7.834;2022-08-25T04:29:54;6.57;;;3.00;;
58808;SDS011;44579;51.672;7.834;2022-08-25T04:32:21;14.18;;;3.67;;
58808;SDS011;44579;51.672;7.834;2022-08-25T04:34:48;7.82;;;3.30;;
58808;SDS011;44579;51.672;7.834;2022-08-25T04:37:15;11.75;;;3.50;;
58808;SDS011;44579;51.672;7.834;2022-08-25T04:39:42;4.60;;;3.08;;
58808;SDS011;44579;51.672;7.834;2022-08-25T04:42:09;5.32;;;2.97;;
58808;SDS011;44579;51.672;7.834;2022-08-25T04:44:43;4.75;;;2.80;;
58808;SDS011;44579;51.672;7.834;2022-08-25T04:47:10;6.60;;;3.40;;
58808;SDS011;44579;51.672;7.834;2022-08-25T04:49:37;5.43;;;3.60;;
58808;SDS011;44579;51.672;7.834;2022-08-25T04:52:06;11.82;;;3.65;;
58808;SDS011;44579;51.672;7.834;2022-08-25T04:54:40;5.88;;;3.40;;
58808;SDS011;44579;51.672;7.834;2022-08-25T04:57:07;8.02;;;3.33;;
58808;SDS011;44579;51.672;7.834;2022-08-25T05:02:02;7.10;;;3.33;;
58808;SDS011;44579;51.672;7.834;2022-08-25T05:04:34;4.82;;;3.53;;
58808;SDS011;44579;51.672;7.834;2022-08-25T05:07:01;8.18;;;3.25;;
58808;SDS011;44579;51.672;7.834;2022-08-25T05:09:30;5.13;;;3.45;;
58808;SDS011;44579;51.672;7.834;2022-08-25T05:11:58;7.38;;;3.58;;
58808;SDS011;44579;51.672;7.834;2022-08-25T05:14:27;10.43;;;3.45;;
58808;SDS011;44579;51.672;7.834;2022-08-25T05:19:24;7.20;;;3.15;;
58808;SDS011;44579;51.672;7.834;2022-08-25T05:21:53;12.82;;;3.40;;
58808;SDS011;44579;51.672;7.834;2022-08-25T05:24:23;8.20;;;3.63;;
58808;SDS011;44579;51.672;7.834;2022-08-25T05:26:50;10.30;;;3.58;;
58808;SDS011;44579;51.672;7.834;2022-08-25T05:29:17;7.90;;;3.60;;
58808;SDS011;44579;51.672;7.834;2022-08-25T05:34:16;7.38;;;3.10;;
58808;SDS011;44579;51.672;7.834;2022-08-25T05:36:44;6.25;;;3.53;;
58808;SDS011;44579;51.672;7.834;2022-08-25T05:39:12;5.20;;;3.03;;
58808;SDS011;44579;51.672;7.834;2022-08-25T05:41:42;6.53;;;3.45;;
58808;SDS011;44579;51.672;7.834;2022-08-25T05:44:09;9.25;;;3.70;;
58808;SDS011;44579;51.672;7.834;2022-08-25T05:46:37;4.85;;;3.17;;
58808;SDS011;44579;51.672;7.834;2022-08-25T05:49:04;6.60;;;3.20;;
58808;SDS011;44579;51.672;7.834;2022-08-25T05:51:33;9.90;;;3.72;;
58808;SDS011;44579;51.672;7.834;2022-08-25T05:54:02;6.68;;;3.13;;
58808;SDS011;44579;51.672;7.834;2022-08-25T06:01:27;9.40;;;3.75;;
58808;SDS011;44579;51.672;7.834;2022-08-25T06:04:16;7.70;;;3.20;;
58808;SDS011;44579;51.672;7.834;2022-08-25T06:06:43;9.77;;;3.45;;
58808;SDS011;44579;51.672;7.834;2022-08-25T06:09:10;9.30;;;3.50;;
58808;SDS011;44579;51.672;7.834;2022-08-25T06:11:37;5.55;;;3.05;;
58808;SDS011;44579;51.672;7.834;2022-08-25T06:14:06;9.02;;;3.55;;
58808;SDS011;44579;51.672;7.834;2022-08-25T06:16:34;7.25;;;3.50;;
58808;SDS011;44579;51.672;7.834;2022-08-25T06:19:02;5.68;;;3.53;;
58808;SDS011;44579;51.672;7.834;2022-08-25T06:21:29;9.18;;;3.97;;
58808;SDS011;44579;51.672;7.834;2022-08-25T06:23:56;4.38;;;2.47;;
58808;SDS011;44579;51.672;7.834;2022-08-25T06:26:23;9.20;;;3.30;;
58808;SDS011;44579;51.672;7.834;2022-08-25T06:31:17;6.97;;;3.70;;
58808;SDS011;44579;51.672;7.834;2022-08-25T06:33:45;6.78;;;3.60;;
58808;SDS011;44579;51.672;7.834;2022-08-25T06:36:15;6.45;;;3.22;;
58808;SDS011;44579;51.672;7.834;2022-08-25T06:41:09;14.20;;;4.07;;
58808;SDS011;44579;51.672;7.834;2022-08-25T06:43:37;5.35;;;3.28;;
58808;SDS011;44579;51.672;7.834;2022-08-25T06:46:15;4.47;;;3.00;;
58808;SDS011;44579;51.672;7.834;2022-08-25T06:49:02;10.70;;;3.45;;
58808;SDS011;44579;51.672;7.834;2022-08-25T06:51:30;8.02;;;3.72;;
58808;SDS011;44579;51.672;7.834;2022-08-25T06:53:59;7.25;;;3.72;;
58808;SDS011;44579;51.672;7.834;2022-08-25T06:56:26;10.88;;;4.30;;
58808;SDS011;44579;51.672;7.834;2022-08-25T06:58:53;10.18;;;3.72;;
58808;SDS011;44579;51.672;7.834;2022-08-25T07:01:21;6.30;;;3.83;;
58808;SDS011;44579;51.672;7.834;2022-08-25T07:03:56;13.43;;;4.60;;
58808;SDS011;44579;51.672;7.834;2022-08-25T07:06:25;12.63;;;4.05;;
58808;SDS011;44579;51.672;7.834;2022-08-25T07:08:53;9.90;;;3.85;;
58808;SDS011;44579;51.672;7.834;2022-08-25T07:11:20;6.82;;;3.60;;
58808;SDS011;44579;51.672;7.834;2022-08-25T07:13:47;8.45;;;3.13;;
58808;SDS011;44579;51.672;7.834;2022-08-25T07:16:16;10.50;;;3.78;;
58808;SDS011;44579;51.672;7.834;2022-08-25T07:18:44;8.13;;;4.00;;
58808;SDS011;44579;51.672;7.834;2022-08-25T07:21:12;8.88;;;2.97;;
58808;SDS011;44579;51.672;7.834;2022-08-25T07:23:40;9.80;;;4.45;;
58808;SDS011;44579;51.672;7.834;2022-08-25T07:26:08;12.05;;;5.28;;
58808;SDS011;44579;51.672;7.834;2022-08-25T07:29:02;7.68;;;2.75;;
58808;SDS011;44579;51.672;7.834;2022-08-25T07:31:32;9.68;;;4.45;;
58808;SDS011;44579;51.672;7.834;2022-08-25T07:34:03;6.97;;;3.40;;
58808;SDS011;44579;51.672;7.834;2022-08-25T07:36:51;9.73;;;4.55;;
58808;SDS011;44579;51.672;7.834;2022-08-25T07:39:18;15.75;;;4.97;;
58808;SDS011;44579;51.672;7.834;2022-08-25T07:41:47;12.48;;;4.78;;
58808;SDS011;44579;51.672;7.834;2022-08-25T07:44:18;7.10;;;2.88;;
58808;SDS011;44579;51.672;7.834;2022-08-25T07:46:47;11.10;;;4.93;;
58808;SDS011;44579;51.672;7.834;2022-08-25T07:49:16;11.38;;;4.53;;
58808;SDS011;44579;51.672;7.834;2022-08-25T07:51:49;12.85;;;5.00;;
58808;SDS011;44579;51.672;7.834;2022-08-25T07:54:32;9.35;;;4.93;;
58808;SDS011;44579;51.672;7.834;2022-08-25T07:57:04;15.10;;;4.93;;
58808;SDS011;44579;51.672;7.834;2022-08-25T07:59:32;10.90;;;5.10;;
58808;SDS011;44579;51.672;7.834;2022-08-25T08:02:06;13.13;;;5.45;;
58808;SDS011;44579;51.672;7.834;2022-08-25T08:04:44;11.32;;;4.75;;
58808;SDS011;44579;51.672;7.834;2022-08-25T08:07:19;13.82;;;7.00;;
58808;SDS011;44579;51.672;7.834;2022-08-25T08:09:51;11.13;;;4.03;;
58808;SDS011;44579;51.672;7.834;2022-08-25T08:12:38;15.18;;;6.10;;
58808;SDS011;44579;51.672;7.834;2022-08-25T08:15:07;15.38;;;5.65;;
58808;SDS011;44579;51.672;7.834;2022-08-25T08:17:36;21.38;;;6.43;;
58808;SDS011;44579;51.672;7.834;2022-08-25T08:20:04;14.52;;;6.22;;
58808;SDS011;44579;51.672;7.834;2022-08-25T08:22:40;12.35;;;4.68;;
58808;SDS011;44579;51.672;7.834;2022-08-25T08:25:09;16.92;;;6.40;;
58808;SDS011;44579;51.672;7.834;2022-08-25T08:27:44;11.45;;;5.32;;
58808;SDS011;44579;51.672;7.834;2022-08-25T08:30:12;13.65;;;6.75;;
58808;SDS011;44579;51.672;7.834;2022-08-25T08:32:39;8.20;;;3.45;;
58808;SDS011;44579;51.672;7.834;2022-08-25T08:35:26;18.95;;;7.20;;
58808;SDS011;44579;51.672;7.834;2022-08-25T08:37:53;12.45;;;5.55;;
58808;SDS011;44579;51.672;7.834;2022-08-25T08:40:20;15.52;;;6.43;;
58808;SDS011;44579;51.672;7.834;2022-08-25T08:45:48;24.98;;;8.20;;
58808;SDS011;44579;51.672;7.834;2022-08-25T08:51:42;25.83;;;8.02;;
58808;SDS011;44579;51.672;7.834;2022-08-25T08:54:20;11.23;;;2.47;;
58808;SDS011;44579;51.672;7.834;2022-08-25T08:56:57;26.52;;;8.43;;
58808;SDS011;44579;51.672;7.834;2022-08-25T08:59:37;18.83;;;7.88;;
58808;SDS011;44579;51.672;7.834;2022-08-25T09:02:27;14.95;;;7.28;;
58808;SDS011;44579;51.672;7.834;2022-08-25T09:05:17;23.67;;;7.50;;
58808;SDS011;44579;51.672;7.834;2022-08-25T09:08:07;16.17;;;8.15;;
58808;SDS011;44579;51.672;7.834;2022-08-25T09:16:20;26.83;;;9.82;;
58808;SDS011;44579;51.672;7.834;2022-08-25T09:19:40;30.35;;;8.00;;
58808;SDS011;44579;51.672;7.834;2022-08-25T09:28:51;22.98;;;10.25;;
58808;SDS011;44579;51.672;7.834;2022-08-25T09:31:41;9.13;;;4.35;;
58808;SDS011;44579;51.672;7.834;2022-08-25T09:34:19;19.70;;;7.70;;
58808;SDS011;44579;51.672;7.834;2022-08-25T09:36:48;22.35;;;10.07;;
58808;SDS011;44579;51.672;7.834;2022-08-25T09:39:19;24.73;;;9.57;;
58808;SDS011;44579;51.672;7.834;2022-08-25T09:41:53;23.17;;;7.93;;
58808;SDS011;44579;51.672;7.834;2022-08-25T09:44:29;12.20;;;6.25;;
58808;SDS011;44579;51.672;7.834;2022-08-25T09:47:00;37.88;;;7.88;;
58808;SDS011;44579;51.672;7.834;2022-08-25T09:49:35;15.18;;;5.30;;
58808;SDS011;44579;51.672;7.834;2022-08-25T09:54:59;20.73;;;8.32;;
58808;SDS011;44579;51.672;7.834;2022-08-25T10:02:43;14.48;;;6.72;;
58808;SDS011;44579;51.672;7.834;2022-08-25T10:05:31;16.45;;;8.43;;
58808;SDS011;44579;51.672;7.834;2022-08-25T10:08:21;19.38;;;7.38;;
58808;SDS011;44579;51.672;7.834;2022-08-25T10:10:58;17.92;;;7.35;;
58808;SDS011;44579;51.672;7.834;2022-08-25T10:13:35;17.20;;;6.97;;
58808;SDS011;44579;51.672;7.834;2022-08-25T10:16:12;13.27;;;6.70;;
58808;SDS011;44579;51.672;7.834;2022-08-25T10:24:28;19.65;;;7.35;;
58808;SDS011;44579;51.672;7.834;2022-08-25T10:30:04;20.63;;;7.22;;
58808;SDS011;44579;51.672;7.834;2022-08-25T10:35:23;16.90;;;6.80;;
58808;SDS011;44579;51.672;7.834;2022-08-25T10:40:52;13.77;;;6.22;;
58808;SDS011;44579;51.672;7.834;2022-08-25T10:46:40;22.48;;;7.57;;
58808;SDS011;44579;51.672;7.834;2022-08-25T10:49:23;27.92;;;6.57;;
58808;SDS011;44579;51.672;7.834;2022-08-25T10:52:00;20.75;;;7.57;;
58808;SDS011;44579;51.672;7.834;2022-08-25T10:54:41;18.63;;;8.20;;
58808;SDS011;44579;51.672;7.834;2022-08-25T11:03:13;27.77;;;9.00;;
58808;SDS011;44579;51.672;7.834;2022-08-25T11:05:41;15.50;;;7.68;;
58808;SDS011;44579;51.672;7.834;2022-08-25T11:11:00;16.08;;;6.80;;
58808;SDS011;44579;51.672;7.834;2022-08-25T11:13:45;23.67;;;9.38;;
58808;SDS011;44579;51.672;7.834;2022-08-25T11:16:17;28.63;;;9.13;;
58808;SDS011;44579;51.672;7.834;2022-08-25T11:21:41;20.00;;;8.02;;
58808;SDS011;44579;51.672;7.834;2022-08-25T11:27:47;18.98;;;5.88;;
58808;SDS011;44579;51.672;7.834;2022-08-25T11:30:25;14.65;;;6.32;;
58808;SDS011;44579;51.672;7.834;2022-08-25T11:32:54;18.48;;;6.28;;
58808;SDS011;44579;51.672;7.834;2022-08-25T11:40:56;27.73;;;10.00;;
58808;SDS011;44579;51.672;7.834;2022-08-25T11:47:16;24.15;;;3.92;;
58808;SDS011;44579;51.672;7.834;2022-08-25T11:49:51;21.10;;;8.88;;
58808;SDS011;44579;51.672;7.834;2022-08-25T11:55:20;14.98;;;5.22;;
58808;SDS011;44579;51.672;7.834;2022-08-25T11:58:15;12.60;;;5.18;;
58808;SDS011;44579;51.672;7.834;2022-08-25T12:00:47;22.23;;;8.88;;
58808;SDS011;44579;51.672;7.834;2022-08-25T12:09:17;22.58;;;8.63;;
58808;SDS011;44579;51.672;7.834;2022-08-25T12:14:52;25.55;;;8.63;;
58808;SDS011;44579;51.672;7.834;2022-08-25T12:35:38;25.65;;;10.45;;
58808;SDS011;44579;51.672;7.834;2022-08-25T12:41:18;12.88;;;5.03;;
58808;SDS011;44579;51.672;7.834;2022-08-25T12:44:08;16.52;;;7.72;;
58808;SDS011;44579;51.672;7.834;2022-08-25T12:47:10;22.38;;;8.80;;
58808;SDS011;44579;51.672;7.834;2022-08-25T12:49:39;21.80;;;8.68;;
58808;SDS011;44579;51.672;7.834;2022-08-25T12:54:52;25.98;;;8.13;;
58808;SDS011;44579;51.672;7.834;2022-08-25T13:02:51;13.35;;;6.28;;
58808;SDS011;44579;51.672;7.834;2022-08-25T13:10:44;15.52;;;5.63;;
58808;SDS011;44579;51.672;7.834;2022-08-25T13:16:15;8.43;;;5.17;;
58808;SDS011;44579;51.672;7.834;2022-08-25T13:21:29;24.52;;;8.57;;
58808;SDS011;44579;51.672;7.834;2022-08-25T13:24:04;20.90;;;8.07;;
58808;SDS011;44579;51.672;7.834;2022-08-25T13:26:38;17.83;;;8.38;;
58808;SDS011;44579;51.672;7.834;2022-08-25T13:29:21;15.00;;;7.60;;
58808;SDS011;44579;51.672;7.834;2022-08-25T13:34:23;25.30;;;8.48;;
58808;SDS011;44579;51.672;7.834;2022-08-25T13:37:07;19.42;;;8.32;;
58808;SDS011;44579;51.672;7.834;2022-08-25T13:40:07;24.15;;;7.82;;
58808;SDS011;44579;51.672;7.834;2022-08-25T13:42:52;16.55;;;6.93;;
58808;SDS011;44579;51.672;7.834;2022-08-25T13:45:27;20.05;;;6.28;;
58808;SDS011;44579;51.672;7.834;2022-08-25T13:47:57;20.52;;;8.25;;
58808;SDS011;44579;51.672;7.834;2022-08-25T13:55:28;20.63;;;6.70;;
58808;SDS011;44579;51.672;7.834;2022-08-25T13:58:17;19.40;;;8.43;;
58808;SDS011;44579;51.672;7.834;2022-08-25T14:04:20;26.83;;;7.95;;
58808;SDS011;44579;51.672;7.834;2022-08-25T14:10:10;46.20;;;8.45;;
58808;SDS011;44579;51.672;7.834;2022-08-25T14:13:10;15.75;;;7.30;;
58808;SDS011;44579;51.672;7.834;2022-08-25T14:18:55;13.27;;;6.32;;
58808;SDS011;44579;51.672;7.834;2022-08-25T14:21:25;16.63;;;6.97;;
58808;SDS011;44579;51.672;7.834;2022-08-25T14:23:54;13.10;;;6.65;;
58808;SDS011;44579;51.672;7.834;2022-08-25T14:26:25;19.60;;;7.13;;
58808;SDS011;44579;51.672;7.834;2022-08-25T14:28:55;10.63;;;4.10;;
58808;SDS011;44579;51.672;7.834;2022-08-25T14:31:34;13.50;;;5.22;;
58808;SDS011;44579;51.672;7.834;2022-08-25T14:34:15;13.85;;;5.88;;
58808;SDS011;44579;51.672;7.834;2022-08-25T14:36:49;13.52;;;6.03;;
58808;SDS011;44579;51.672;7.834;2022-08-25T14:39:17;16.00;;;6.22;;
58808;SDS011;44579;51.672;7.834;2022-08-25T14:41:44;11.80;;;6.47;;
58808;SDS011;44579;51.672;7.834;2022-08-25T14:44:19;19.75;;;7.95;;
58808;SDS011;44579;51.672;7.834;2022-08-25T14:46:51;21.77;;;5.65;;
58808;SDS011;44579;51.672;7.834;2022-08-25T14:49:24;15.75;;;7.40;;
58808;SDS011;44579;51.672;7.834;2022-08-25T14:52:00;15.18;;;6.95;;
58808;SDS011;44579;51.672;7.834;2022-08-25T14:54:34;18.80;;;6.38;;
58808;SDS011;44579;51.672;7.834;2022-08-25T14:57:03;15.77;;;6.90;;
58808;SDS011;44579;51.672;7.834;2022-08-25T14:59:33;16.17;;;6.45;;
58808;SDS011;44579;51.672;7.834;2022-08-25T15:04:27;13.75;;;4.75;;
58808;SDS011;44579;51.672;7.834;2022-08-25T15:06:58;12.38;;;5.28;;
58808;SDS011;44579;51.672;7.834;2022-08-25T15:09:28;12.85;;;6.45;;
58808;SDS011;44579;51.672;7.834;2022-08-25T15:11:59;24.83;;;7.43;;
58808;SDS011;44579;51.672;7.834;2022-08-25T15:14:26;8.07;;;4.93;;
58808;SDS011;44579;51.672;7.834;2022-08-25T15:16:58;14.98;;;6.60;;
58808;SDS011;44579;51.672;7.834;2022-08-25T15:19:27;17.23;;;5.63;;
58808;SDS011;44579;51.672;7.834;2022-08-25T15:21:54;11.63;;;5.93;;
58808;SDS011;44579;51.672;7.834;2022-08-25T15:24:24;10.45;;;6.03;;
58808;SDS011;44579;51.672;7.834;2022-08-25T15:26:54;16.70;;;5.95;;
58808;SDS011;44579;51.672;7.834;2022-08-25T15:29:24;7.63;;;3.25;;
58808;SDS011;44579;51.672;7.834;2022-08-25T15:31:55;14.32;;;4.95;;
58808;SDS011;44579;51.672;7.834;2022-08-25T15:34:23;16.75;;;7.03;;
58808;SDS011;44579;51.672;7.834;2022-08-25T15:36:50;13.02;;;6.75;;
58808;SDS011;44579;51.672;7.834;2022-08-25T15:39:17;12.65;;;4.85;;
58808;SDS011;44579;51.672;7.834;2022-08-25T15:41:45;16.17;;;5.88;;
58808;SDS011;44579;51.672;7.834;2022-08-25T15:44:18;13.23;;;6.50;;
58808;SDS011;44579;51.672;7.834;2022-08-25T15:46:45;9.48;;;5.82;;
58808;SDS011;44579;51.672;7.834;2022-08-25T15:49:21;13.55;;;5.45;;
58808;SDS011;44579;51.672;7.834;2022-08-25T15:51:56;15.63;;;6.45;;
58808;SDS011;44579;51.672;7.834;2022-08-25T15:54:24;8.90;;;4.45;;
58808;SDS011;44579;51.672;7.834;2022-08-25T15:56:53;18.85;;;5.65;;
58808;SDS011;44579;51.672;7.834;2022-08-25T15:59:22;11.32;;;4.65;;
58808;SDS011;44579;51.672;7.834;2022-08-25T16:01:50;8.48;;;4.25;;
58808;SDS011;44579;51.672;7.834;2022-08-25T16:04:21;13.00;;;5.50;;
58808;SDS011;44579;51.672;7.834;2022-08-25T16:06:50;11.70;;;5.35;;
58808;SDS011;44579;51.672;7.834;2022-08-25T16:09:17;9.05;;;5.22;;
58808;SDS011;44579;51.672;7.834;2022-08-25T16:11:49;15.35;;;5.30;;
58808;SDS011;44579;51.672;7.834;2022-08-25T16:14:25;15.30;;;4.35;;
58808;SDS011;44579;51.672;7.834;2022-08-25T16:16:55;14.38;;;5.72;;
58808;SDS011;44579;51.672;7.834;2022-08-25T16:19:26;8.07;;;4.57;;
58808;SDS011;44579;51.672;7.834;2022-08-25T16:21:57;13.88;;;4.50;;
58808;SDS011;44579;51.672;7.834;2022-08-25T16:24:26;11.35;;;5.03;;
58808;SDS011;44579;51.672;7.834;2022-08-25T16:26:55;14.30;;;5.72;;
58808;SDS011;44579;51.672;7.834;2022-08-25T16:29:38;15.73;;;5.15;;
58808;SDS011;44579;51.672;7.834;2022-08-25T16:32:11;5.45;;;2.85;;
58808;SDS011;44579;51.672;7.834;2022-08-25T16:34:39;15.90;;;5.45;;
58808;SDS011;44579;51.672;7.834;2022-08-25T16:37:07;18.23;;;5.78;;
58808;SDS011;44579;51.672;7.834;2022-08-25T16:39:35;16.60;;;5.30;;
58808;SDS011;44579;51.672;7.834;2022-08-25T16:42:05;14.13;;;6.07;;
58808;SDS011;44579;51.672;7.834;2022-08-25T16:44:32;11.43;;;4.55;;
58808;SDS011;44579;51.672;7.834;2022-08-25T16:47:00;12.13;;;4.78;;
58808;SDS011;44579;51.672;7.834;2022-08-25T16:49:27;15.00;;;4.30;;
58808;SDS011;44579;51.672;7.834;2022-08-25T16:51:54;10.98;;;5.55;;
58808;SDS011;44579;51.672;7.834;2022-08-25T16:54:24;15.65;;;5.03;;
58808;SDS011;44579;51.672;7.834;2022-08-25T16:57:11;12.57;;;4.30;;
58808;SDS011;44579;51.672;7.834;2022-08-25T16:59:38;11.93;;;5.10;;
58808;SDS011;44579;51.672;7.834;2022-08-25T17:02:09;14.70;;;5.55;;
58808;SDS011;44579;51.672;7.834;2022-08-25T17:04:36;15.02;;;5.45;;
58808;SDS011;44579;51.672;7.834;2022-08-25T17:07:03;7.75;;;4.30;;
58808;SDS011;44579;51.672;7.834;2022-08-25T17:09:33;14.85;;;5.28;;
58808;SDS011;44579;51.672;7.834;2022-08-25T17:12:03;8.80;;;4.32;;
58808;SDS011;44579;51.672;7.834;2022-08-25T17:14:31;10.60;;;4.75;;
58808;SDS011;44579;51.672;7.834;2022-08-25T17:16:58;10.82;;;4.50;;
58808;SDS011;44579;51.672;7.834;2022-08-25T17:19:25;16.80;;;5.18;;
58808;SDS011;44579;51.672;7.834;2022-08-25T17:21:55;12.40;;;5.47;;
58808;SDS011;44579;51.672;7.834;2022-08-25T17:24:24;11.23;;;4.40;;
58808;SDS011;44579;51.672;7.834;2022-08-25T17:26:57;19.10;;;4.90;;
58808;SDS011;44579;51.672;7.834;2022-08-25T17:29:27;19.23;;;4.88;;
58808;SDS011;44579;51.672;7.834;2022-08-25T17:31:57;10.20;;;4.47;;
58808;SDS011;44579;51.672;7.834;2022-08-25T17:34:26;10.95;;;4.35;;
58808;SDS011;44579;51.672;7.834;2022-08-25T17:37:07;15.07;;;5.68;;
58808;SDS011;44579;51.672;7.834;2022-08-25T17:39:37;16.33;;;5.40;;
58808;SDS011;44579;51.672;7.834;2022-08-25T17:42:05;11.75;;;5.07;;
58808;SDS011;44579;51.672;7.834;2022-08-25T17:44:37;12.50;;;4.90;;
58808;SDS011;44579;51.672;7.834;2022-08-25T17:47:04;15.75;;;4.57;;
58808;SDS011;44579;51.672;7.834;2022-08-25T17:49:33;10.60;;;5.00;;
58808;SDS011;44579;51.672;7.834;2022-08-25T17:52:03;12.30;;;5.13;;
58808;SDS011;44579;51.672;7.834;2022-08-25T17:54:32;17.77;;;5.18;;
58808;SDS011;44579;51.672;7.834;2022-08-25T17:57:02;11.13;;;5.18;;
58808;SDS011;44579;51.672;7.834;2022-08-25T17:59:35;11.13;;;6.68;;
58808;SDS011;44579;51.672;7.834;2022-08-25T18:02:09;14.60;;;5.70;;